sensor_id;sensor_type;location;lat;lon;timestamp;pressure;altitude;pressure_sealevel;temperature;humidity
11712;BME280;5912;51.034;6.984;2023-10-31T00:01:03;56470.50;;;-142.13;72.31
11712;BME280;5912;51.034;6.984;2023-10-31T00:03:28;56490.53;;;-142.13;71.82
11712;BME280;5912;51.034;6.984;2023-10-31T00:05:54;56480.53;;;-142.13;71.70
11712;BME280;5912;51.034;6.984;2023-10-31T00:08:19;56474.53;;;-142.13;71.90
11712;BME280;5912;51.034;6.984;2023-10-31T00:10:44;56512.59;;;-142.13;71.58
11712;BME280;5912;51.034;6.984;2023-10-31T00:13:10;56500.56;;;-142.13;71.44
11712;BME280;5912;51.034;6.984;2023-10-31T00:15:36;56498.56;;;-142.13;71.68
11712;BME280;5912;51.034;6.984;2023-10-31T00:18:02;56464.50;;;-142.13;71.42
11712;BME280;5912;51.034;6.984;2023-10-31T00:20:27;56480.53;;;-142.13;71.66
11712;BME280;5912;51.034;6.984;2023-10-31T00:22:52;56496.56;;;-142.13;71.72
11712;BME280;5912;51.034;6.984;2023-10-31T00:25:18;56492.53;;;-142.13;71.89
11712;BME280;5912;51.034;6.984;2023-10-31T00:27:43;56484.53;;;-142.13;71.98
11712;BME280;5912;51.034;6.984;2023-10-31T00:30:09;56484.53;;;-142.13;72.38
11712;BME280;5912;51.034;6.984;2023-10-31T00:32:34;56508.56;;;-142.13;72.11
11712;BME280;5912;51.034;6.984;2023-10-31T00:34:59;56488.53;;;-142.13;72.09
11712;BME280;5912;51.034;6.984;2023-10-31T00:37:25;56486.53;;;-142.13;72.04
11712;BME280;5912;51.034;6.984;2023-10-31T00:39:50;56480.53;;;-142.13;71.86
11712;BME280;5912;51.034;6.984;2023-10-31T00:42:15;56494.56;;;-142.13;71.61
11712;BME280;5912;51.034;6.984;2023-10-31T00:44:41;56490.53;;;-142.13;71.75
11712;BME280;5912;51.034;6.984;2023-10-31T00:47:06;56470.50;;;-142.13;71.38
11712;BME280;5912;51.034;6.984;2023-10-31T00:49:31;56540.63;;;-142.13;71.77
11712;BME280;5912;51.034;6.984;2023-10-31T00:51:56;56490.53;;;-142.13;71.82
11712;BME280;5912;51.034;6.984;2023-10-31T00:54:22;56518.59;;;-142.13;71.85
11712;BME280;5912;51.034;6.984;2023-10-31T00:56:47;56454.47;;;-142.13;71.27
11712;BME280;5912;51.034;6.984;2023-10-31T00:59:13;56504.56;;;-142.13;71.51
11712;BME280;5912;51.034;6.984;2023-10-31T01:01:38;56500.56;;;-142.13;71.65
11712;BME280;5912;51.034;6.984;2023-10-31T01:04:04;56512.59;;;-142.13;70.74
11712;BME280;5912;51.034;6.984;2023-10-31T01:06:29;56488.53;;;-142.13;70.99
11712;BME280;5912;51.034;6.984;2023-10-31T01:08:54;56484.53;;;-142.13;70.10
11712;BME280;5912;51.034;6.984;2023-10-31T01:11:20;56502.56;;;-142.13;70.32
11712;BME280;5912;51.034;6.984;2023-10-31T01:13:45;56488.53;;;-142.13;70.08
11712;BME280;5912;51.034;6.984;2023-10-31T01:16:10;56494.56;;;-142.13;70.13
11712;BME280;5912;51.034;6.984;2023-10-31T01:18:36;56508.56;;;-142.13;70.54
11712;BME280;5912;51.034;6.984;2023-10-31T01:21:01;56492.53;;;-142.13;70.44
11712;BME280;5912;51.034;6.984;2023-10-31T01:23:26;56484.53;;;-142.13;70.35
11712;BME280;5912;51.034;6.984;2023-10-31T01:25:52;56518.59;;;-142.13;70.27
11712;BME280;5912;51.034;6.984;2023-10-31T01:28:17;56474.53;;;-142.13;70.49
11712;BME280;5912;51.034;6.984;2023-10-31T01:30:42;56500.56;;;-142.13;70.41
11712;BME280;5912;51.034;6.984;2023-10-31T01:33:08;56498.56;;;-142.13;70.43
11712;BME280;5912;51.034;6.984;2023-10-31T01:35:33;56526.59;;;-142.13;70.76
11712;BME280;5912;51.034;6.984;2023-10-31T01:37:58;56502.56;;;-142.13;70.49
11712;BME280;5912;51.034;6.984;2023-10-31T01:40:24;56458.50;;;-142.13;70.21
11712;BME280;5912;51.034;6.984;2023-10-31T01:42:49;56500.56;;;-142.13;70.53
11712;BME280;5912;51.034;6.984;2023-10-31T01:45:14;56526.59;;;-142.13;70.53
11712;BME280;5912;51.034;6.984;2023-10-31T01:47:40;56488.53;;;-142.13;70.46
11712;BME280;5912;51.034;6.984;2023-10-31T01:50:06;56514.59;;;-142.13;70.47
11712;BME280;5912;51.034;6.984;2023-10-31T01:52:32;56458.50;;;-142.13;70.50
11712;BME280;5912;51.034;6.984;2023-10-31T01:54:58;56498.56;;;-142.13;70.41
11712;BME280;5912;51.034;6.984;2023-10-31T01:57:24;56502.56;;;-142.13;70.05
11712;BME280;5912;51.034;6.984;2023-10-31T01:59:49;56504.56;;;-142.13;70.13
11712;BME280;5912;51.034;6.984;2023-10-31T02:02:15;56504.56;;;-142.13;70.37
11712;BME280;5912;51.034;6.984;2023-10-31T02:04:40;56498.56;;;-142.13;70.36
11712;BME280;5912;51.034;6.984;2023-10-31T02:07:05;56496.56;;;-142.13;70.49
11712;BME280;5912;51.034;6.984;2023-10-31T02:09:32;56532.63;;;-142.13;70.25
11712;BME280;5912;51.034;6.984;2023-10-31T02:11:57;56496.56;;;-142.13;70.42
11712;BME280;5912;51.034;6.984;2023-10-31T02:14:23;56516.59;;;-142.13;70.53
11712;BME280;5912;51.034;6.984;2023-10-31T02:16:49;56550.63;;;-142.13;70.49
11712;BME280;5912;51.034;6.984;2023-10-31T02:19:19;56508.56;;;-142.13;70.12
11712;BME280;5912;51.034;6.984;2023-10-31T02:21:45;56494.56;;;-142.13;70.30
11712;BME280;5912;51.034;6.984;2023-10-31T02:24:10;56488.53;;;-142.13;70.27
11712;BME280;5912;51.034;6.984;2023-10-31T02:26:35;56510.56;;;-142.13;70.34
11712;BME280;5912;51.034;6.984;2023-10-31T02:29:01;56528.59;;;-142.13;70.13
11712;BME280;5912;51.034;6.984;2023-10-31T02:31:27;56528.59;;;-142.13;70.23
11712;BME280;5912;51.034;6.984;2023-10-31T02:33:53;56506.56;;;-142.13;70.22
11712;BME280;5912;51.034;6.984;2023-10-31T02:36:18;56532.63;;;-142.13;70.35
11712;BME280;5912;51.034;6.984;2023-10-31T02:38:44;56504.56;;;-142.13;70.39
11712;BME280;5912;51.034;6.984;2023-10-31T02:41:10;56480.53;;;-142.13;70.54
11712;BME280;5912;51.034;6.984;2023-10-31T02:43:35;56486.53;;;-142.13;70.89
11712;BME280;5912;51.034;6.984;2023-10-31T02:46:01;56506.56;;;-142.13;71.06
11712;BME280;5912;51.034;6.984;2023-10-31T02:48:26;56522.59;;;-142.13;71.00
11712;BME280;5912;51.034;6.984;2023-10-31T02:50:52;56510.56;;;-142.13;70.88
11712;BME280;5912;51.034;6.984;2023-10-31T02:53:40;56532.63;;;-142.13;70.83
11712;BME280;5912;51.034;6.984;2023-10-31T02:56:05;56522.59;;;-142.13;70.60
11712;BME280;5912;51.034;6.984;2023-10-31T02:58:31;56508.56;;;-142.13;70.54
11712;BME280;5912;51.034;6.984;2023-10-31T03:00:56;56516.59;;;-142.13;70.47
11712;BME280;5912;51.034;6.984;2023-10-31T03:03:22;56520.59;;;-142.13;70.88
11712;BME280;5912;51.034;6.984;2023-10-31T03:05:47;56528.59;;;-142.13;71.02
11712;BME280;5912;51.034;6.984;2023-10-31T03:08:12;56504.56;;;-142.13;71.21
11712;BME280;5912;51.034;6.984;2023-10-31T03:10:38;56496.56;;;-142.13;70.92
11712;BME280;5912;51.034;6.984;2023-10-31T03:13:03;56524.59;;;-142.13;71.28
11712;BME280;5912;51.034;6.984;2023-10-31T03:15:29;56492.53;;;-142.13;71.33
11712;BME280;5912;51.034;6.984;2023-10-31T03:17:54;56508.56;;;-142.13;71.53
11712;BME280;5912;51.034;6.984;2023-10-31T03:20:19;56520.59;;;-142.13;71.58
11712;BME280;5912;51.034;6.984;2023-10-31T03:22:45;56500.56;;;-142.13;71.48
11712;BME280;5912;51.034;6.984;2023-10-31T03:25:10;56540.63;;;-142.13;71.09
11712;BME280;5912;51.034;6.984;2023-10-31T03:27:35;56514.59;;;-142.13;71.32
11712;BME280;5912;51.034;6.984;2023-10-31T03:30:01;56526.59;;;-142.13;71.19
11712;BME280;5912;51.034;6.984;2023-10-31T03:32:26;56530.59;;;-142.13;70.92
11712;BME280;5912;51.034;6.984;2023-10-31T03:34:51;56492.53;;;-142.13;70.97
11712;BME280;5912;51.034;6.984;2023-10-31T03:37:17;56516.59;;;-142.13;70.82
11712;BME280;5912;51.034;6.984;2023-10-31T03:39:42;56488.53;;;-142.13;70.84
11712;BME280;5912;51.034;6.984;2023-10-31T03:42:07;56516.59;;;-142.13;70.70
11712;BME280;5912;51.034;6.984;2023-10-31T03:44:33;56496.56;;;-142.13;70.58
11712;BME280;5912;51.034;6.984;2023-10-31T03:46:58;56524.59;;;-142.13;71.04
11712;BME280;5912;51.034;6.984;2023-10-31T03:49:23;56562.66;;;-142.13;70.68
11712;BME280;5912;51.034;6.984;2023-10-31T03:51:49;56520.59;;;-142.13;70.79
11712;BME280;5912;51.034;6.984;2023-10-31T03:54:14;56474.53;;;-142.13;70.40
11712;BME280;5912;51.034;6.984;2023-10-31T03:56:40;56514.59;;;-142.13;70.52
11712;BME280;5912;51.034;6.984;2023-10-31T03:59:06;56500.56;;;-142.13;70.46
11712;BME280;5912;51.034;6.984;2023-10-31T04:01:31;56540.63;;;-142.13;70.55
11712;BME280;5912;51.034;6.984;2023-10-31T04:03:57;56548.63;;;-142.13;70.49
11712;BME280;5912;51.034;6.984;2023-10-31T04:06:22;56524.59;;;-142.13;70.35
11712;BME280;5912;51.034;6.984;2023-10-31T04:08:47;56536.63;;;-142.13;70.42
11712;BME280;5912;51.034;6.984;2023-10-31T04:11:12;56496.56;;;-142.13;69.63
11712;BME280;5912;51.034;6.984;2023-10-31T04:13:38;56522.59;;;-142.13;69.85
11712;BME280;5912;51.034;6.984;2023-10-31T04:16:03;56516.59;;;-142.13;70.20
11712;BME280;5912;51.034;6.984;2023-10-31T04:18:29;56496.56;;;-142.13;69.92
11712;BME280;5912;51.034;6.984;2023-10-31T04:20:54;56508.56;;;-142.13;70.13
11712;BME280;5912;51.034;6.984;2023-10-31T04:23:19;56528.59;;;-142.13;69.99
11712;BME280;5912;51.034;6.984;2023-10-31T04:25:45;56542.63;;;-142.13;70.04
11712;BME280;5912;51.034;6.984;2023-10-31T04:28:11;56508.56;;;-142.13;70.10
11712;BME280;5912;51.034;6.984;2023-10-31T04:30:38;56530.59;;;-142.13;70.08
11712;BME280;5912;51.034;6.984;2023-10-31T04:33:03;56512.59;;;-142.13;70.26
11712;BME280;5912;51.034;6.984;2023-10-31T04:35:29;56488.53;;;-142.13;70.30
11712;BME280;5912;51.034;6.984;2023-10-31T04:37:54;56498.56;;;-142.13;70.16
11712;BME280;5912;51.034;6.984;2023-10-31T04:40:19;56516.59;;;-142.13;70.10
11712;BME280;5912;51.034;6.984;2023-10-31T04:42:46;56492.53;;;-142.13;69.68
11712;BME280;5912;51.034;6.984;2023-10-31T04:45:12;56522.59;;;-142.13;69.69
11712;BME280;5912;51.034;6.984;2023-10-31T04:47:37;56490.53;;;-142.13;70.03
11712;BME280;5912;51.034;6.984;2023-10-31T04:50:03;56500.56;;;-142.13;69.97
11712;BME280;5912;51.034;6.984;2023-10-31T04:52:28;56546.63;;;-142.13;70.24
11712;BME280;5912;51.034;6.984;2023-10-31T04:54:53;56516.59;;;-142.13;70.12
11712;BME280;5912;51.034;6.984;2023-10-31T04:57:19;56480.53;;;-142.13;70.21
11712;BME280;5912;51.034;6.984;2023-10-31T04:59:44;56502.56;;;-142.13;70.39
11712;BME280;5912;51.034;6.984;2023-10-31T05:02:09;56518.59;;;-142.13;70.06
11712;BME280;5912;51.034;6.984;2023-10-31T05:04:38;56502.56;;;-142.13;69.94
11712;BME280;5912;51.034;6.984;2023-10-31T05:07:04;56512.59;;;-142.13;70.03
11712;BME280;5912;51.034;6.984;2023-10-31T05:09:29;56536.63;;;-142.13;69.98
11712;BME280;5912;51.034;6.984;2023-10-31T05:11:55;56494.56;;;-142.13;69.80
11712;BME280;5912;51.034;6.984;2023-10-31T05:14:20;56504.56;;;-142.13;70.03
11712;BME280;5912;51.034;6.984;2023-10-31T05:16:45;56492.53;;;-142.13;69.89
11712;BME280;5912;51.034;6.984;2023-10-31T05:19:11;56510.56;;;-142.13;69.43
11712;BME280;5912;51.034;6.984;2023-10-31T05:21:36;56484.53;;;-142.13;69.20
11712;BME280;5912;51.034;6.984;2023-10-31T05:24:02;56516.59;;;-142.13;69.36
11712;BME280;5912;51.034;6.984;2023-10-31T05:26:27;56508.56;;;-142.13;69.03
11712;BME280;5912;51.034;6.984;2023-10-31T05:28:54;56480.53;;;-142.13;69.01
11712;BME280;5912;51.034;6.984;2023-10-31T05:31:19;56496.56;;;-142.13;68.57
11712;BME280;5912;51.034;6.984;2023-10-31T05:33:45;56514.59;;;-142.13;68.41
11712;BME280;5912;51.034;6.984;2023-10-31T05:36:24;56488.53;;;-142.13;68.29
11712;BME280;5912;51.034;6.984;2023-10-31T05:38:49;56490.53;;;-142.13;67.74
11712;BME280;5912;51.034;6.984;2023-10-31T05:41:15;56508.56;;;-142.13;67.49
11712;BME280;5912;51.034;6.984;2023-10-31T05:43:41;56520.59;;;-142.13;67.43
11712;BME280;5912;51.034;6.984;2023-10-31T05:46:07;56512.59;;;-142.13;67.21
11712;BME280;5912;51.034;6.984;2023-10-31T05:48:37;56472.50;;;-142.13;67.29
11712;BME280;5912;51.034;6.984;2023-10-31T05:51:03;56502.56;;;-142.13;67.64
11712;BME280;5912;51.034;6.984;2023-10-31T05:53:28;56492.53;;;-142.13;67.72
11712;BME280;5912;51.034;6.984;2023-10-31T05:55:55;56524.59;;;-142.13;67.33
11712;BME280;5912;51.034;6.984;2023-10-31T05:58:20;56508.56;;;-142.13;67.56
11712;BME280;5912;51.034;6.984;2023-10-31T06:00:45;56518.59;;;-142.13;67.60
11712;BME280;5912;51.034;6.984;2023-10-31T06:03:10;56522.59;;;-142.13;67.53
11712;BME280;5912;51.034;6.984;2023-10-31T06:05:36;56498.56;;;-142.13;67.90
11712;BME280;5912;51.034;6.984;2023-10-31T06:08:01;56496.56;;;-142.13;67.95
11712;BME280;5912;51.034;6.984;2023-10-31T06:10:26;56506.56;;;-142.13;67.48
11712;BME280;5912;51.034;6.984;2023-10-31T06:12:52;56522.59;;;-142.13;67.67
11712;BME280;5912;51.034;6.984;2023-10-31T06:15:17;56512.59;;;-142.13;67.31
11712;BME280;5912;51.034;6.984;2023-10-31T06:17:42;56524.59;;;-142.13;67.54
11712;BME280;5912;51.034;6.984;2023-10-31T06:20:08;56486.53;;;-142.13;67.44
11712;BME280;5912;51.034;6.984;2023-10-31T06:22:34;56530.59;;;-142.13;67.37
11712;BME280;5912;51.034;6.984;2023-10-31T06:25:02;56506.56;;;-142.13;67.29
11712;BME280;5912;51.034;6.984;2023-10-31T06:27:28;56510.56;;;-142.13;67.56
11712;BME280;5912;51.034;6.984;2023-10-31T06:29:53;56510.56;;;-142.13;67.55
11712;BME280;5912;51.034;6.984;2023-10-31T06:32:20;56492.53;;;-142.13;67.70
11712;BME280;5912;51.034;6.984;2023-10-31T06:34:46;56486.53;;;-142.13;67.18
11712;BME280;5912;51.034;6.984;2023-10-31T06:37:11;56518.59;;;-142.13;67.20
11712;BME280;5912;51.034;6.984;2023-10-31T06:39:36;56496.56;;;-142.13;67.59
11712;BME280;5912;51.034;6.984;2023-10-31T06:42:02;56502.56;;;-142.13;67.12
11712;BME280;5912;51.034;6.984;2023-10-31T06:44:27;56508.56;;;-142.13;67.21
11712;BME280;5912;51.034;6.984;2023-10-31T06:46:52;56516.59;;;-142.13;67.42
11712;BME280;5912;51.034;6.984;2023-10-31T06:49:18;56528.59;;;-142.13;67.22
11712;BME280;5912;51.034;6.984;2023-10-31T06:51:44;56492.53;;;-142.13;67.42
11712;BME280;5912;51.034;6.984;2023-10-31T06:54:10;56496.56;;;-142.13;67.63
11712;BME280;5912;51.034;6.984;2023-10-31T06:56:35;56524.59;;;-142.13;67.65
11712;BME280;5912;51.034;6.984;2023-10-31T06:59:00;56536.63;;;-142.13;67.83
11712;BME280;5912;51.034;6.984;2023-10-31T07:01:25;56532.63;;;-142.13;67.98
11712;BME280;5912;51.034;6.984;2023-10-31T07:03:51;56486.53;;;-142.13;67.70
11712;BME280;5912;51.034;6.984;2023-10-31T07:06:17;56512.59;;;-142.13;67.80
11712;BME280;5912;51.034;6.984;2023-10-31T07:08:42;56504.56;;;-142.13;67.88
11712;BME280;5912;51.034;6.984;2023-10-31T07:11:07;56542.63;;;-142.13;68.02
11712;BME280;5912;51.034;6.984;2023-10-31T07:13:33;56494.56;;;-142.13;68.02
11712;BME280;5912;51.034;6.984;2023-10-31T07:15:58;56508.56;;;-142.13;68.52
11712;BME280;5912;51.034;6.984;2023-10-31T07:18:23;56502.56;;;-142.13;68.88
11712;BME280;5912;51.034;6.984;2023-10-31T07:20:48;56492.53;;;-142.13;69.02
11712;BME280;5912;51.034;6.984;2023-10-31T07:23:14;56508.56;;;-142.13;69.46
11712;BME280;5912;51.034;6.984;2023-10-31T07:25:40;56512.59;;;-142.13;69.54
11712;BME280;5912;51.034;6.984;2023-10-31T07:28:05;56500.56;;;-142.13;69.68
11712;BME280;5912;51.034;6.984;2023-10-31T07:30:30;56516.59;;;-142.13;69.63
11712;BME280;5912;51.034;6.984;2023-10-31T07:32:56;56490.53;;;-142.13;69.89
11712;BME280;5912;51.034;6.984;2023-10-31T07:35:21;56502.56;;;-142.13;70.04
11712;BME280;5912;51.034;6.984;2023-10-31T07:37:46;56490.53;;;-142.13;70.07
11712;BME280;5912;51.034;6.984;2023-10-31T07:40:12;56494.56;;;-142.13;70.10
11712;BME280;5912;51.034;6.984;2023-10-31T07:42:37;56512.59;;;-142.13;70.25
11712;BME280;5912;51.034;6.984;2023-10-31T07:45:03;56510.56;;;-142.13;69.97
11712;BME280;5912;51.034;6.984;2023-10-31T07:47:28;56500.56;;;-142.13;69.59
11712;BME280;5912;51.034;6.984;2023-10-31T07:49:54;56496.56;;;-142.13;69.37
11712;BME280;5912;51.034;6.984;2023-10-31T07:52:19;56468.50;;;-142.13;69.54
11712;BME280;5912;51.034;6.984;2023-10-31T07:54:44;56500.56;;;-142.13;69.29
11712;BME280;5912;51.034;6.984;2023-10-31T07:57:10;56492.53;;;-142.13;69.29
11712;BME280;5912;51.034;6.984;2023-10-31T07:59:35;56490.53;;;-142.13;69.01
11712;BME280;5912;51.034;6.984;2023-10-31T08:02:01;56468.50;;;-142.13;68.65
11712;BME280;5912;51.034;6.984;2023-10-31T08:04:26;56482.53;;;-142.13;68.19
11712;BME280;5912;51.034;6.984;2023-10-31T08:06:53;56484.53;;;-142.13;67.39
11712;BME280;5912;51.034;6.984;2023-10-31T08:09:18;56492.53;;;-142.13;66.98
11712;BME280;5912;51.034;6.984;2023-10-31T08:11:44;56462.50;;;-142.13;67.16
11712;BME280;5912;51.034;6.984;2023-10-31T08:14:09;56508.56;;;-142.13;66.53
11712;BME280;5912;51.034;6.984;2023-10-31T08:16:35;56436.47;;;-142.13;65.19
11712;BME280;5912;51.034;6.984;2023-10-31T08:19:01;56446.47;;;-142.13;64.83
11712;BME280;5912;51.034;6.984;2023-10-31T08:21:26;56444.47;;;-142.13;63.89
11712;BME280;5912;51.034;6.984;2023-10-31T08:23:54;56460.50;;;-142.13;63.45
11712;BME280;5912;51.034;6.984;2023-10-31T08:26:19;56440.47;;;-142.13;62.47
11712;BME280;5912;51.034;6.984;2023-10-31T08:28:44;56480.53;;;-142.13;61.85
11712;BME280;5912;51.034;6.984;2023-10-31T08:31:10;56450.47;;;-142.13;62.21
11712;BME280;5912;51.034;6.984;2023-10-31T08:33:35;56440.47;;;-142.13;62.06
11712;BME280;5912;51.034;6.984;2023-10-31T08:36:00;56448.47;;;-142.13;62.33
11712;BME280;5912;51.034;6.984;2023-10-31T08:38:26;56436.47;;;-142.13;62.56
11712;BME280;5912;51.034;6.984;2023-10-31T08:40:53;56420.44;;;-142.13;62.50
11712;BME280;5912;51.034;6.984;2023-10-31T08:43:18;56462.50;;;-142.13;62.15
11712;BME280;5912;51.034;6.984;2023-10-31T08:45:44;56408.41;;;-142.13;61.57
11712;BME280;5912;51.034;6.984;2023-10-31T08:48:09;56446.47;;;-142.13;61.69
11712;BME280;5912;51.034;6.984;2023-10-31T08:50:34;56426.44;;;-142.13;61.60
11712;BME280;5912;51.034;6.984;2023-10-31T08:53:00;56432.44;;;-142.13;60.91
11712;BME280;5912;51.034;6.984;2023-10-31T08:55:25;56436.47;;;-142.13;60.80
11712;BME280;5912;51.034;6.984;2023-10-31T08:57:50;56432.44;;;-142.13;60.37
11712;BME280;5912;51.034;6.984;2023-10-31T09:00:18;56416.44;;;-142.13;59.30
11712;BME280;5912;51.034;6.984;2023-10-31T09:02:44;56406.41;;;-142.13;59.16
11712;BME280;5912;51.034;6.984;2023-10-31T09:05:09;56402.41;;;-142.13;59.64
11712;BME280;5912;51.034;6.984;2023-10-31T09:07:34;56428.44;;;-142.13;59.02
11712;BME280;5912;51.034;6.984;2023-10-31T09:10:00;56420.44;;;-142.13;58.70
11712;BME280;5912;51.034;6.984;2023-10-31T09:12:25;56432.44;;;-142.13;58.47
11712;BME280;5912;51.034;6.984;2023-10-31T09:14:50;56432.44;;;-142.13;58.88
11712;BME280;5912;51.034;6.984;2023-10-31T09:17:15;56396.41;;;-142.13;58.78
11712;BME280;5912;51.034;6.984;2023-10-31T09:19:41;56416.44;;;-142.13;58.84
11712;BME280;5912;51.034;6.984;2023-10-31T09:22:06;56412.41;;;-142.13;59.22
11712;BME280;5912;51.034;6.984;2023-10-31T09:24:31;56420.44;;;-142.13;59.02
11712;BME280;5912;51.034;6.984;2023-10-31T09:26:57;56420.44;;;-142.13;59.37
11712;BME280;5912;51.034;6.984;2023-10-31T09:29:22;56406.41;;;-142.13;58.94
11712;BME280;5912;51.034;6.984;2023-10-31T09:31:47;56432.44;;;-142.13;59.07
11712;BME280;5912;51.034;6.984;2023-10-31T09:34:13;56432.44;;;-142.13;59.04
11712;BME280;5912;51.034;6.984;2023-10-31T09:36:39;56392.38;;;-142.13;59.33
11712;BME280;5912;51.034;6.984;2023-10-31T09:39:05;56420.44;;;-142.13;58.72
11712;BME280;5912;51.034;6.984;2023-10-31T09:41:31;56436.47;;;-142.13;59.42
11712;BME280;5912;51.034;6.984;2023-10-31T09:43:57;56440.47;;;-142.13;58.70
11712;BME280;5912;51.034;6.984;2023-10-31T09:46:23;56392.38;;;-142.13;58.69
11712;BME280;5912;51.034;6.984;2023-10-31T09:48:49;56390.38;;;-142.13;58.55
11712;BME280;5912;51.034;6.984;2023-10-31T09:51:14;56428.44;;;-142.13;57.93
11712;BME280;5912;51.034;6.984;2023-10-31T09:53:41;56394.38;;;-142.13;57.67
11712;BME280;5912;51.034;6.984;2023-10-31T09:56:09;56418.44;;;-142.13;57.29
11712;BME280;5912;51.034;6.984;2023-10-31T09:58:35;56412.41;;;-142.13;56.36
11712;BME280;5912;51.034;6.984;2023-10-31T10:01:00;56408.41;;;-142.13;56.26
11712;BME280;5912;51.034;6.984;2023-10-31T10:03:27;56400.41;;;-142.13;56.05
11712;BME280;5912;51.034;6.984;2023-10-31T10:05:52;56376.34;;;-142.13;54.69
11712;BME280;5912;51.034;6.984;2023-10-31T10:08:19;56402.41;;;-142.13;55.01
11712;BME280;5912;51.034;6.984;2023-10-31T10:10:45;56384.38;;;-142.13;55.13
11712;BME280;5912;51.034;6.984;2023-10-31T10:13:10;56370.34;;;-142.13;55.07
11712;BME280;5912;51.034;6.984;2023-10-31T10:15:44;56362.34;;;-142.13;54.34
11712;BME280;5912;51.034;6.984;2023-10-31T10:18:09;56382.38;;;-142.13;53.63
11712;BME280;5912;51.034;6.984;2023-10-31T10:20:35;56356.31;;;-142.13;53.82
11712;BME280;5912;51.034;6.984;2023-10-31T10:23:03;56346.31;;;-142.13;53.80
11712;BME280;5912;51.034;6.984;2023-10-31T10:25:29;56388.38;;;-142.13;53.77
11712;BME280;5912;51.034;6.984;2023-10-31T10:27:55;56342.31;;;-142.13;53.34
11712;BME280;5912;51.034;6.984;2023-10-31T10:30:21;56374.34;;;-142.13;52.96
11712;BME280;5912;51.034;6.984;2023-10-31T10:32:49;56372.34;;;-142.13;52.96
11712;BME280;5912;51.034;6.984;2023-10-31T10:35:16;56362.34;;;-142.13;52.77
11712;BME280;5912;51.034;6.984;2023-10-31T10:37:42;56360.34;;;-142.13;51.46
11712;BME280;5912;51.034;6.984;2023-10-31T10:40:10;56354.31;;;-142.13;51.88
11712;BME280;5912;51.034;6.984;2023-10-31T10:42:45;56358.34;;;-142.13;51.97
11712;BME280;5912;51.034;6.984;2023-10-31T10:45:15;56336.28;;;-142.13;50.27
11712;BME280;5912;51.034;6.984;2023-10-31T10:47:50;56364.34;;;-142.13;49.62
11712;BME280;5912;51.034;6.984;2023-10-31T10:50:18;56346.31;;;-142.13;49.60
11712;BME280;5912;51.034;6.984;2023-10-31T10:52:49;56360.34;;;-142.13;50.43
11712;BME280;5912;51.034;6.984;2023-10-31T10:55:21;56364.34;;;-142.13;50.53
11712;BME280;5912;51.034;6.984;2023-10-31T10:58:05;56390.38;;;-142.13;51.04
11712;BME280;5912;51.034;6.984;2023-10-31T11:00:33;56364.34;;;-142.13;50.06
11712;BME280;5912;51.034;6.984;2023-10-31T11:02:59;56384.38;;;-142.13;49.01
11712;BME280;5912;51.034;6.984;2023-10-31T11:05:26;56360.34;;;-142.13;49.58
11712;BME280;5912;51.034;6.984;2023-10-31T11:07:52;56344.31;;;-142.13;49.57
11712;BME280;5912;51.034;6.984;2023-10-31T11:10:18;56372.34;;;-142.13;49.25
11712;BME280;5912;51.034;6.984;2023-10-31T11:12:44;56364.34;;;-142.13;49.26
11712;BME280;5912;51.034;6.984;2023-10-31T11:15:13;56356.31;;;-142.13;49.42
11712;BME280;5912;51.034;6.984;2023-10-31T11:17:41;56372.34;;;-142.13;49.69
11712;BME280;5912;51.034;6.984;2023-10-31T11:20:09;56390.38;;;-142.13;49.25
11712;BME280;5912;51.034;6.984;2023-10-31T11:22:43;56392.38;;;-142.13;49.98
11712;BME280;5912;51.034;6.984;2023-10-31T11:25:13;56384.38;;;-142.13;49.79
11712;BME280;5912;51.034;6.984;2023-10-31T11:27:39;56380.38;;;-142.13;50.07
11712;BME280;5912;51.034;6.984;2023-10-31T11:30:20;56360.34;;;-142.13;50.12
11712;BME280;5912;51.034;6.984;2023-10-31T11:32:51;56372.34;;;-142.13;50.51
11712;BME280;5912;51.034;6.984;2023-10-31T11:35:17;56378.38;;;-142.13;51.14
11712;BME280;5912;51.034;6.984;2023-10-31T11:37:43;56384.38;;;-142.13;50.62
11712;BME280;5912;51.034;6.984;2023-10-31T11:40:15;56368.34;;;-142.13;50.82
11712;BME280;5912;51.034;6.984;2023-10-31T11:42:41;56352.31;;;-142.13;50.24
11712;BME280;5912;51.034;6.984;2023-10-31T11:45:10;56396.41;;;-142.13;50.72
11712;BME280;5912;51.034;6.984;2023-10-31T11:47:51;56392.38;;;-142.13;50.72
11712;BME280;5912;51.034;6.984;2023-10-31T11:50:17;56408.41;;;-142.13;51.67
11712;BME280;5912;51.034;6.984;2023-10-31T11:52:43;56344.31;;;-142.13;51.54
11712;BME280;5912;51.034;6.984;2023-10-31T11:55:11;56388.38;;;-142.13;50.16
11712;BME280;5912;51.034;6.984;2023-10-31T11:57:38;56390.38;;;-142.13;50.48
11712;BME280;5912;51.034;6.984;2023-10-31T12:00:04;56388.38;;;-142.13;49.99
11712;BME280;5912;51.034;6.984;2023-10-31T12:02:30;56362.34;;;-142.13;49.95
11712;BME280;5912;51.034;6.984;2023-10-31T12:05:12;56358.34;;;-142.13;49.98
11712;BME280;5912;51.034;6.984;2023-10-31T12:07:45;56354.31;;;-142.13;49.96
11712;BME280;5912;51.034;6.984;2023-10-31T12:10:11;56394.38;;;-142.13;48.86
11712;BME280;5912;51.034;6.984;2023-10-31T12:12:37;56384.38;;;-142.13;48.86
11712;BME280;5912;51.034;6.984;2023-10-31T12:15:08;56356.31;;;-142.13;48.41
11712;BME280;5912;51.034;6.984;2023-10-31T12:17:35;56360.34;;;-142.13;48.12
11712;BME280;5912;51.034;6.984;2023-10-31T12:20:08;56340.31;;;-142.13;47.67
11712;BME280;5912;51.034;6.984;2023-10-31T12:22:34;56312.25;;;-142.13;46.79
11712;BME280;5912;51.034;6.984;2023-10-31T12:27:48;56324.28;;;-142.13;46.47
11712;BME280;5912;51.034;6.984;2023-10-31T12:30:20;56362.34;;;-142.13;46.51
11712;BME280;5912;51.034;6.984;2023-10-31T12:32:55;56320.28;;;-142.13;46.96
11712;BME280;5912;51.034;6.984;2023-10-31T12:35:23;56300.25;;;-142.13;46.97
11712;BME280;5912;51.034;6.984;2023-10-31T12:37:50;56324.28;;;-142.13;46.84
11712;BME280;5912;51.034;6.984;2023-10-31T12:40:20;56324.28;;;-142.13;46.49
11712;BME280;5912;51.034;6.984;2023-10-31T12:42:47;56308.25;;;-142.13;45.75
11712;BME280;5912;51.034;6.984;2023-10-31T12:45:13;56334.28;;;-142.13;46.00
11712;BME280;5912;51.034;6.984;2023-10-31T12:47:39;56312.25;;;-142.13;46.18